createdAt,value
2022-10-07T00:01:16.571Z,53886.78
2022-10-07T00:03:44.981Z,53888.78
2022-10-07T00:06:15.217Z,53920.59
2022-10-07T00:08:45.977Z,53906.69
2022-10-07T00:11:17.304Z,53898.72
2022-10-07T00:13:47.348Z,53884.81
2022-10-07T00:16:21.038Z,53872.88
2022-10-07T00:18:49.390Z,53892.75
2022-10-07T00:21:21.076Z,53886.78
2022-10-07T00:23:49.990Z,53908.66
2022-10-07T00:26:22.981Z,53910.66
2022-10-07T00:28:51.753Z,53898.72
2022-10-07T00:31:21.895Z,53902.69
2022-10-07T00:33:51.372Z,53876.84
2022-10-07T00:36:23.702Z,53900.72
2022-10-07T00:38:53.888Z,53896.75
2022-10-07T00:41:27.897Z,53926.56
2022-10-07T00:43:56.635Z,53910.66
2022-10-07T00:46:31.086Z,53924.56
2022-10-07T00:49:02.798Z,53910.66
2022-10-07T00:51:33.694Z,53916.63
2022-10-07T00:54:05.036Z,53912.66
2022-10-07T00:56:37.619Z,53904.69
2022-10-07T00:59:06.909Z,53938.50
2022-10-07T01:01:35.609Z,53920.59
2022-10-07T01:04:04.844Z,53912.66
2022-10-07T01:06:33.301Z,53924.56
2022-10-07T01:09:01.743Z,53912.66
2022-10-07T01:11:43.379Z,53926.56
2022-10-07T01:14:19.782Z,53950.44
2022-10-07T01:16:57.521Z,53930.53
2022-10-07T01:19:47.024Z,53934.50
2022-10-07T01:22:26.168Z,53920.59
2022-10-07T01:25:13.140Z,53916.63
2022-10-07T01:27:49.593Z,53936.50
2022-10-07T01:30:19.418Z,53904.69
2022-10-07T01:32:54.170Z,53908.66
2022-10-07T01:35:29.164Z,53940.47
2022-10-07T01:38:01.517Z,53972.28
2022-10-07T01:40:35.965Z,53928.56
2022-10-07T01:43:07.331Z,53944.47
2022-10-07T01:45:41.767Z,53912.66
2022-10-07T01:48:11.127Z,53942.47
2022-10-07T01:50:40.907Z,53952.41
2022-10-07T01:53:25.481Z,53954.41
2022-10-07T01:56:11.953Z,53936.50
2022-10-07T01:59:00.994Z,53958.38
2022-10-07T02:01:38.996Z,53970.31
2022-10-07T02:04:25.579Z,53948.44
2022-10-07T02:07:03.207Z,53940.47
2022-10-07T02:09:35.752Z,53924.56
2022-10-07T02:12:13.317Z,53942.47
2022-10-07T02:14:50.669Z,53916.63
2022-10-07T02:17:21.816Z,53940.47
2022-10-07T02:19:54.537Z,53984.22
2022-10-07T02:22:26.184Z,53968.31
2022-10-07T02:24:59.034Z,53984.22
2022-10-07T02:27:32.891Z,53948.44
2022-10-07T02:30:06.309Z,53936.50
2022-10-07T02:32:37.813Z,53956.38
2022-10-07T02:35:15.015Z,53982.25
2022-10-07T02:37:47.851Z,53976.28
2022-10-07T02:40:17.412Z,53936.50
2022-10-07T02:42:54.429Z,53972.28
2022-10-07T02:45:29.569Z,54020.00
2022-10-07T02:48:01.912Z,53964.34
2022-10-07T02:50:38.543Z,53980.25
2022-10-07T02:53:08.760Z,53956.38
2022-10-07T02:55:38.495Z,53988.19
2022-10-07T02:58:09.647Z,53982.25
2022-10-07T03:00:46.020Z,53962.34
2022-10-07T03:03:15.850Z,53980.25
2022-10-07T03:05:51.045Z,53992.19
2022-10-07T03:08:25.526Z,54012.06
2022-10-07T03:10:54.208Z,53966.34
2022-10-07T03:13:24.952Z,54010.06
2022-10-07T03:15:59.450Z,53988.19
2022-10-07T03:18:29.389Z,54000.13
2022-10-07T03:21:17.135Z,53986.22
2022-10-07T03:23:52.219Z,53994.16
2022-10-07T03:26:25.811Z,54008.09
2022-10-07T03:28:55.348Z,53994.16
2022-10-07T03:31:26.457Z,53986.22
2022-10-07T03:33:58.379Z,53986.22
2022-10-07T03:36:26.974Z,53992.19
2022-10-07T03:38:55.913Z,54014.06
2022-10-07T03:41:25.343Z,54000.13
2022-10-07T03:43:59.212Z,54018.03
2022-10-07T03:46:30.236Z,53990.19
2022-10-07T03:48:59.138Z,53996.16
2022-10-07T03:51:29.115Z,53976.28
2022-10-07T03:53:57.772Z,54018.03
2022-10-07T03:56:29.102Z,53994.16
2022-10-07T03:58:57.440Z,54027.97
2022-10-07T04:01:27.276Z,54020.00
2022-10-07T04:04:01.611Z,53998.16
2022-10-07T04:06:33.896Z,53990.19
2022-10-07T04:09:06.149Z,54041.88
2022-10-07T04:11:35.310Z,54039.91
2022-10-07T04:14:03.776Z,54022.00
2022-10-07T04:16:37.794Z,54033.94
2022-10-07T04:19:10.018Z,54031.94
2022-10-07T04:21:38.439Z,54067.75
2022-10-07T04:24:06.984Z,54035.91
2022-10-07T04:26:36.976Z,54027.97
2022-10-07T04:29:05.454Z,54053.81
2022-10-07T04:31:34.733Z,54079.66
2022-10-07T04:34:06.889Z,54047.84
2022-10-07T04:36:41.043Z,54063.75
2022-10-07T04:39:13.529Z,54081.66
2022-10-07T04:41:54.832Z,54077.69
2022-10-07T04:44:26.538Z,54075.69
2022-10-07T04:47:00.520Z,54101.53
2022-10-07T04:49:31.482Z,54065.75
2022-10-07T04:52:03.408Z,54063.75
2022-10-07T04:54:36.724Z,54119.44
2022-10-07T04:57:05.197Z,54109.50
2022-10-07T04:59:34.543Z,54099.56
2022-10-07T05:02:03.552Z,54111.47
2022-10-07T05:04:35.500Z,54091.59
2022-10-07T05:07:06.102Z,54103.53
2022-10-07T05:09:36.155Z,54115.47
2022-10-07T05:12:05.190Z,54107.50
2022-10-07T05:14:34.013Z,54103.53
2022-10-07T05:17:04.159Z,54107.50
2022-10-07T05:19:35.235Z,54137.34
2022-10-07T05:22:05.918Z,54143.28
2022-10-07T05:24:34.481Z,54163.19
2022-10-07T05:27:03.713Z,54111.47
2022-10-07T05:29:31.964Z,54131.38
2022-10-07T05:32:04.780Z,54161.19
2022-10-07T05:34:34.130Z,54155.22
2022-10-07T05:37:02.634Z,54115.47
2022-10-07T05:39:32.318Z,54159.19
2022-10-07T05:42:07.842Z,54151.25
2022-10-07T05:44:42.915Z,54193.00
2022-10-07T05:47:12.410Z,54163.19
2022-10-07T05:49:41.519Z,54151.25
2022-10-07T05:52:09.911Z,54179.09
2022-10-07T05:54:39.903Z,54193.00
2022-10-07T05:57:09.378Z,54181.06
2022-10-07T05:59:38.113Z,54157.22
2022-10-07T06:02:06.687Z,54187.03
2022-10-07T06:04:35.509Z,54171.13
2022-10-07T06:07:04.222Z,54171.13
2022-10-07T06:09:50.642Z,54171.13
2022-10-07T06:12:38.814Z,54230.78
2022-10-07T06:15:12.464Z,54224.81
2022-10-07T06:17:45.312Z,54216.88
2022-10-07T06:20:16.455Z,54230.78
2022-10-07T06:22:46.471Z,54244.72
2022-10-07T06:25:16.726Z,54242.72
2022-10-07T06:27:53.449Z,54256.63
2022-10-07T06:30:25.472Z,54272.53
2022-10-07T06:32:54.943Z,54276.53
2022-10-07T06:35:23.744Z,54322.25
2022-10-07T06:37:54.466Z,54298.41
2022-10-07T06:40:23.180Z,54318.28
2022-10-07T06:42:52.783Z,54308.34
2022-10-07T06:45:26.035Z,54324.25
2022-10-07T06:47:55.325Z,54324.25
2022-10-07T06:50:25.316Z,54322.25
2022-10-07T06:52:54.204Z,54354.06
2022-10-07T06:55:22.856Z,54342.16
2022-10-07T06:57:52.486Z,54368.00
2022-10-07T07:00:22.628Z,54342.16
2022-10-07T07:02:51.554Z,54397.81
2022-10-07T07:05:20.679Z,54397.81
2022-10-07T07:07:49.715Z,54397.81
2022-10-07T07:10:20.581Z,54409.75
2022-10-07T07:12:55.538Z,54407.78
2022-10-07T07:15:24.549Z,54395.84
2022-10-07T07:17:53.026Z,54433.63
2022-10-07T07:20:22.054Z,54409.75
2022-10-07T07:22:52.554Z,54425.66
2022-10-07T07:25:21.118Z,54437.59
2022-10-07T07:27:53.802Z,54421.69
2022-10-07T07:30:26.710Z,54427.66
2022-10-07T07:32:57.299Z,54401.81
2022-10-07T07:35:30.258Z,54419.69
2022-10-07T07:37:59.136Z,54403.78
2022-10-07T07:40:29.004Z,54393.84
2022-10-07T07:42:57.385Z,54421.69
2022-10-07T07:45:27.901Z,54443.56
2022-10-07T07:47:57.556Z,54413.72
2022-10-07T07:50:27.372Z,54346.13
2022-10-07T07:53:00.222Z,54308.34
2022-10-07T07:55:28.938Z,54230.78
2022-10-07T07:57:57.572Z,54224.81
2022-10-07T08:00:27.721Z,54123.41
2022-10-07T08:03:04.298Z,54167.16
2022-10-07T08:05:35.873Z,54037.91
2022-10-07T08:08:04.839Z,54016.03
2022-10-07T08:10:33.266Z,53998.16
2022-10-07T08:13:01.933Z,53956.38
2022-10-07T08:15:32.383Z,53928.56
2022-10-07T08:18:00.870Z,53928.56
2022-10-07T08:20:29.419Z,53878.84
2022-10-07T08:22:59.876Z,53819.19
2022-10-07T08:25:29.671Z,53777.44
2022-10-07T08:27:59.966Z,53793.34
2022-10-07T08:30:31.584Z,53761.53
2022-10-07T08:33:01.571Z,53769.50
2022-10-07T08:35:30.120Z,53757.56
2022-10-07T08:37:58.597Z,53749.59
2022-10-07T08:40:27.079Z,53697.91
2022-10-07T08:42:55.544Z,53678.03
2022-10-07T08:45:32.650Z,53670.09
2022-10-07T08:48:06.509Z,53666.09
2022-10-07T08:50:46.820Z,53638.28
2022-10-07T08:53:21.528Z,53652.19
2022-10-07T08:55:55.051Z,53654.19
2022-10-07T08:58:50.620Z,53654.19
2022-10-07T09:01:34.473Z,53670.09
2022-10-07T09:04:18.402Z,53622.38
2022-10-07T09:06:54.451Z,53610.44
2022-10-07T09:09:27.647Z,53626.34
2022-10-07T09:11:57.625Z,53590.56
2022-10-07T09:14:30.019Z,53586.56
2022-10-07T09:17:05.994Z,53570.69
2022-10-07T09:19:41.962Z,53578.63
2022-10-07T09:22:19.425Z,53570.69
2022-10-07T09:24:49.367Z,53550.78
2022-10-07T09:27:20.223Z,53562.72
2022-10-07T09:29:49.163Z,53544.81
2022-10-07T09:32:19.906Z,53554.78
2022-10-07T09:34:49.715Z,53534.88
2022-10-07T09:37:21.914Z,53528.94
2022-10-07T09:39:52.116Z,53515.00
2022-10-07T09:42:35.592Z,53526.94
2022-10-07T09:45:07.332Z,53511.03
2022-10-07T09:47:40.543Z,53515.00
2022-10-07T09:50:32.112Z,53517.00
2022-10-07T09:53:00.599Z,53479.22
2022-10-07T09:55:37.760Z,53479.22
2022-10-07T09:58:07.984Z,53477.22
2022-10-07T10:00:44.471Z,53487.19
2022-10-07T10:03:13.744Z,53479.22
2022-10-07T10:05:54.533Z,53453.38
2022-10-07T10:08:26.224Z,53475.25
2022-10-07T10:10:56.948Z,53447.41
2022-10-07T10:13:34.602Z,53447.41
2022-10-07T10:16:04.162Z,53467.28
2022-10-07T10:18:36.612Z,53481.22
2022-10-07T10:21:30.380Z,53459.34
2022-10-07T10:24:00.624Z,53441.44
2022-10-07T10:26:42.104Z,53435.47
2022-10-07T10:29:18.647Z,53427.53
2022-10-07T10:32:04.355Z,53403.69
2022-10-07T10:34:42.715Z,53401.69
2022-10-07T10:37:20.535Z,53437.47
2022-10-07T10:39:59.648Z,53403.69
2022-10-07T10:42:37.115Z,53413.63
2022-10-07T10:45:18.444Z,53411.63
2022-10-07T10:48:06.021Z,53437.47
2022-10-07T10:50:43.738Z,53411.63
2022-10-07T10:53:29.457Z,53409.63
2022-10-07T10:56:08.702Z,53427.53
2022-10-07T10:58:53.366Z,53393.75
2022-10-07T11:01:30.472Z,53375.84
2022-10-07T11:04:23.116Z,53399.69
2022-10-07T11:06:58.540Z,53387.78
2022-10-07T11:09:38.680Z,53405.66
2022-10-07T11:12:18.381Z,53375.84
2022-10-07T11:14:54.614Z,53387.78
2022-10-07T11:17:31.567Z,53379.81
2022-10-07T11:20:08.510Z,53363.91
2022-10-07T11:22:43.326Z,53367.91
2022-10-07T11:25:24.863Z,53381.81
2022-10-07T11:27:56.986Z,53371.88
2022-10-07T11:30:29.162Z,53381.81
2022-10-07T11:33:02.454Z,53381.81
2022-10-07T11:35:33.979Z,53369.88
2022-10-07T11:38:07.606Z,53377.84
2022-10-07T11:40:45.937Z,53359.94
2022-10-07T11:43:20.522Z,53352.00
2022-10-07T11:45:53.315Z,53357.94
2022-10-07T11:48:26.476Z,53353.97
2022-10-07T11:51:00.906Z,53348.00
2022-10-07T11:53:33.896Z,53316.22
2022-10-07T11:56:07.171Z,53328.13
2022-10-07T11:58:38.934Z,53314.22
2022-10-07T12:01:55.351Z,53330.13
2022-10-07T12:04:40.433Z,53340.06
2022-10-07T12:07:38.298Z,53330.13
2022-10-07T12:10:23.436Z,53326.16
2022-10-07T12:12:55.910Z,53326.16
2022-10-07T12:15:31.041Z,53348.00
2022-10-07T12:18:29.936Z,53316.22
2022-10-07T12:21:08.250Z,53320.19
2022-10-07T12:23:41.812Z,53310.25
2022-10-07T12:26:44.741Z,53334.09
2022-10-07T12:29:30.322Z,53328.13
2022-10-07T12:31:59.162Z,53312.22
2022-10-07T12:34:37.743Z,53314.22
2022-10-07T12:37:42.228Z,53316.22
2022-10-07T12:40:17.757Z,53276.44
2022-10-07T12:42:55.959Z,53300.31
2022-10-07T12:45:28.904Z,53272.47
2022-10-07T12:48:01.862Z,53242.66
2022-10-07T12:50:33.652Z,53300.31
2022-10-07T12:53:04.276Z,53248.63
2022-10-07T12:55:39.037Z,53234.69
2022-10-07T12:58:43.148Z,53236.69
2022-10-07T13:01:28.283Z,53224.75
2022-10-07T13:04:19.246Z,53200.91
2022-10-07T13:07:29.095Z,53206.88
2022-10-07T13:10:25.263Z,53212.84
2022-10-07T13:12:57.261Z,53196.94
2022-10-07T13:15:35.600Z,53208.84
2022-10-07T13:18:14.317Z,53204.88
2022-10-07T13:21:12.325Z,53208.84
2022-10-07T13:23:41.012Z,53204.88
2022-10-07T13:26:14.680Z,53206.88
2022-10-07T13:28:48.447Z,53181.03
2022-10-07T13:31:20.466Z,53200.91
2022-10-07T13:33:51.667Z,53185.00
2022-10-07T13:36:23.074Z,53188.97
2022-10-07T13:38:53.875Z,53187.00
2022-10-07T13:41:28.291Z,53208.84
2022-10-07T13:44:00.515Z,53181.03
2022-10-07T13:46:31.325Z,53194.94
2022-10-07T13:49:02.322Z,53198.91
2022-10-07T13:51:33.986Z,53216.81
2022-10-07T13:54:08.160Z,53220.78
2022-10-07T13:56:40.990Z,53194.94
2022-10-07T13:59:16.096Z,53220.78
2022-10-07T14:01:47.549Z,53214.81
2022-10-07T14:04:35.007Z,53202.91
2022-10-07T14:07:16.999Z,53218.81
2022-10-07T14:09:49.172Z,53228.75
2022-10-07T14:12:23.631Z,53218.81
2022-10-07T14:14:56.307Z,53266.50
2022-10-07T14:17:33.002Z,53264.53
2022-10-07T14:20:07.428Z,53264.53
2022-10-07T14:22:41.237Z,53218.81
2022-10-07T14:25:19.731Z,53240.66
2022-10-07T14:28:16.802Z,53228.75
2022-10-07T14:31:04.838Z,53270.47
2022-10-07T14:34:01.112Z,53260.53
2022-10-07T14:36:31.372Z,53256.56
2022-10-07T14:39:04.026Z,53298.31
2022-10-07T14:41:33.506Z,53252.59
2022-10-07T14:44:04.068Z,53274.47
2022-10-07T14:46:32.572Z,53284.41
2022-10-07T14:49:01.345Z,53262.53
2022-10-07T14:51:31.460Z,53286.38
2022-10-07T14:54:05.201Z,53304.28
2022-10-07T14:56:35.391Z,53292.34
2022-10-07T14:59:03.897Z,53276.44
2022-10-07T15:01:32.574Z,53292.34
2022-10-07T15:04:01.102Z,53288.38
2022-10-07T15:06:31.121Z,53282.41
2022-10-07T15:08:59.628Z,53276.44
2022-10-07T15:11:28.336Z,53288.38
2022-10-07T15:13:56.822Z,53300.31
2022-10-07T15:16:27.943Z,53286.38
2022-10-07T15:18:56.591Z,53286.38
2022-10-07T15:21:25.201Z,53294.34
2022-10-07T15:23:55.530Z,53292.34
2022-10-07T15:26:25.549Z,53320.19
2022-10-07T15:28:55.394Z,53324.16
2022-10-07T15:31:25.075Z,53322.16
2022-10-07T15:33:57.242Z,53304.28
2022-10-07T15:36:26.404Z,53336.09
2022-10-07T15:38:56.254Z,53296.31
2022-10-07T15:41:36.051Z,53334.09
2022-10-07T15:44:06.451Z,53328.13
2022-10-07T15:46:35.415Z,53328.13
2022-10-07T15:49:04.660Z,53308.25
2022-10-07T15:51:35.655Z,53355.97
2022-10-07T15:54:06.616Z,53330.13
2022-10-07T15:56:35.389Z,53338.06
2022-10-07T15:59:03.832Z,53316.22
2022-10-07T16:01:32.888Z,53316.22
2022-10-07T16:04:02.720Z,53318.19
2022-10-07T16:06:33.407Z,53320.19
2022-10-07T16:09:02.723Z,53320.19
2022-10-07T16:11:34.184Z,53334.09
2022-10-07T16:14:03.255Z,53328.13
2022-10-07T16:16:32.861Z,53346.03
2022-10-07T16:19:01.873Z,53340.06
2022-10-07T16:21:32.732Z,53346.03
2022-10-07T16:24:04.113Z,53357.94
2022-10-07T16:26:35.968Z,53353.97
2022-10-07T16:29:24.070Z,53367.91
2022-10-07T16:31:58.217Z,53359.94
2022-10-07T16:34:28.224Z,53387.78
2022-10-07T16:36:58.069Z,53399.69
2022-10-07T16:39:26.465Z,53367.91
2022-10-07T16:41:57.019Z,53385.78
2022-10-07T16:44:25.853Z,53375.84
2022-10-07T16:46:57.105Z,53387.78
2022-10-07T16:49:30.360Z,53403.69
2022-10-07T16:51:59.888Z,53389.75
2022-10-07T16:54:30.439Z,53399.69
2022-10-07T16:57:00.318Z,53403.69
2022-10-07T16:59:28.742Z,53433.50
2022-10-07T17:02:00.315Z,53423.56
2022-10-07T17:04:28.801Z,53435.47
2022-10-07T17:06:57.907Z,53455.38
2022-10-07T17:09:27.155Z,53467.28
2022-10-07T17:11:57.455Z,53475.25
2022-10-07T17:14:27.399Z,53481.22
2022-10-07T17:16:58.362Z,53511.03
2022-10-07T17:19:29.187Z,53532.91
2022-10-07T17:21:59.811Z,53487.19
2022-10-07T17:24:31.306Z,53536.88
2022-10-07T17:26:59.806Z,53507.06
2022-10-07T17:29:30.904Z,53532.91
2022-10-07T17:31:59.473Z,53522.97
2022-10-07T17:34:27.914Z,53542.84
2022-10-07T17:36:58.883Z,53560.72
2022-10-07T17:39:27.525Z,53548.81
2022-10-07T17:41:55.972Z,53578.63
2022-10-07T17:44:24.460Z,53548.81
2022-10-07T17:46:56.840Z,53574.66
2022-10-07T17:49:25.771Z,53582.59
2022-10-07T17:51:55.949Z,53582.59
2022-10-07T17:54:24.614Z,53590.56
2022-10-07T17:56:53.194Z,53566.69
2022-10-07T17:59:21.576Z,53610.44
2022-10-07T18:01:50.083Z,53618.38
2022-10-07T18:04:24.768Z,53606.47
2022-10-07T18:06:53.986Z,53630.31
2022-10-07T18:09:24.176Z,53590.56
2022-10-07T18:12:10.241Z,53610.44
2022-10-07T18:14:56.090Z,53670.09
2022-10-07T18:17:25.145Z,53646.22
2022-10-07T18:19:55.203Z,53670.09
2022-10-07T18:22:24.447Z,53662.13
2022-10-07T18:24:57.213Z,53654.19
2022-10-07T18:27:27.248Z,53630.31
2022-10-07T18:29:55.784Z,53658.16
2022-10-07T18:32:24.642Z,53666.09
2022-10-07T18:34:56.779Z,53670.09
2022-10-07T18:37:27.550Z,53697.91
2022-10-07T18:39:56.035Z,53697.91
2022-10-07T18:42:24.333Z,53699.91
2022-10-07T18:44:52.968Z,53666.09
2022-10-07T18:47:21.580Z,53713.81
2022-10-07T18:49:51.773Z,53697.91
2022-10-07T18:52:21.746Z,53697.91
2022-10-07T18:54:50.275Z,53709.84
2022-10-07T18:57:19.716Z,53741.66
2022-10-07T18:59:48.115Z,53697.91
2022-10-07T19:02:16.744Z,53684.00
2022-10-07T19:04:48.074Z,53697.91
2022-10-07T19:07:16.458Z,53715.81
2022-10-07T19:09:46.348Z,53721.78
2022-10-07T19:12:28.625Z,53709.84
2022-10-07T19:14:57.793Z,53729.72
2022-10-07T19:17:26.813Z,53741.66
2022-10-07T19:20:01.674Z,53735.69
2022-10-07T19:22:30.378Z,53759.56
2022-10-07T19:25:23.054Z,53773.47
2022-10-07T19:27:51.461Z,53753.59
2022-10-07T19:30:20.001Z,53789.38
2022-10-07T19:32:48.569Z,53771.47
2022-10-07T19:35:17.110Z,53751.59
2022-10-07T19:37:45.734Z,53759.56
2022-10-07T19:40:16.169Z,53781.41
2022-10-07T19:42:44.578Z,53765.50
2022-10-07T19:45:14.202Z,53803.28
2022-10-07T19:47:42.783Z,53753.59
2022-10-07T19:50:12.243Z,53777.44
2022-10-07T19:52:40.685Z,53769.50
2022-10-07T19:55:10.134Z,53791.34
2022-10-07T19:57:40.076Z,53789.38
2022-10-07T20:00:12.971Z,53803.28
2022-10-07T20:02:41.412Z,53789.38
2022-10-07T20:05:10.250Z,53821.19
2022-10-07T20:07:39.065Z,53799.31
2022-10-07T20:10:08.807Z,53817.22
2022-10-07T20:12:40.044Z,53813.22
2022-10-07T20:15:11.754Z,53811.25
2022-10-07T20:17:40.428Z,53823.16
2022-10-07T20:20:10.098Z,53825.16
2022-10-07T20:22:38.913Z,53851.00
2022-10-07T20:25:09.446Z,53847.03
2022-10-07T20:27:37.801Z,53833.13
2022-10-07T20:30:17.663Z,53851.00
2022-10-07T20:32:48.087Z,53825.16
2022-10-07T20:35:19.848Z,53845.03
2022-10-07T20:37:48.238Z,53886.78
2022-10-07T20:40:34.487Z,53853.00
2022-10-07T20:43:03.434Z,53868.91
2022-10-07T20:45:52.057Z,53853.00
2022-10-07T20:48:22.066Z,53856.97
2022-10-07T20:50:51.228Z,53858.97
2022-10-07T20:53:20.773Z,53868.91
2022-10-07T20:55:49.483Z,53833.13
2022-10-07T20:58:18.221Z,53849.03
2022-10-07T21:00:46.726Z,53845.03
2022-10-07T21:03:16.831Z,53821.19
2022-10-07T21:05:46.825Z,53837.09
2022-10-07T21:08:15.918Z,53853.00
2022-10-07T21:10:44.324Z,53799.31
2022-10-07T21:13:14.861Z,53833.13
2022-10-07T21:15:43.299Z,53854.97
2022-10-07T21:18:11.708Z,53805.28
2022-10-07T21:20:56.508Z,53815.22
2022-10-07T21:23:28.311Z,53803.28
2022-10-07T21:26:00.745Z,53821.19
2022-10-07T21:28:32.687Z,53793.34
2022-10-07T21:31:03.689Z,53787.38
2022-10-07T21:33:33.865Z,53797.31
2022-10-07T21:36:05.692Z,53769.50
2022-10-07T21:38:34.549Z,53803.28
2022-10-07T21:41:13.196Z,53767.50
2022-10-07T21:43:42.125Z,53805.28
2022-10-07T21:46:11.348Z,53787.38
2022-10-07T21:48:39.829Z,53763.53
2022-10-07T21:51:10.058Z,53759.56
2022-10-07T21:53:38.803Z,53765.50
2022-10-07T21:56:08.629Z,53801.31
2022-10-07T21:58:37.282Z,53769.50
2022-10-07T22:01:07.163Z,53769.50
2022-10-07T22:03:35.749Z,53753.59
2022-10-07T22:06:04.945Z,53761.53
2022-10-07T22:08:37.547Z,53749.59
2022-10-07T22:11:08.350Z,53741.66
2022-10-07T22:13:38.875Z,53749.59
2022-10-07T22:16:12.762Z,53765.50
2022-10-07T22:18:45.353Z,53721.78
2022-10-07T22:21:16.472Z,53761.53
2022-10-07T22:23:50.569Z,53741.66
2022-10-07T22:26:20.369Z,53743.66
2022-10-07T22:28:49.678Z,53791.34
2022-10-07T22:31:19.226Z,53753.59
2022-10-07T22:33:52.145Z,53755.56
2022-10-07T22:36:20.511Z,53747.63
2022-10-07T22:38:50.384Z,53751.59
2022-10-07T22:41:20.526Z,53753.59
2022-10-07T22:43:49.721Z,53753.59
2022-10-07T22:46:26.314Z,53759.56
2022-10-07T22:48:56.595Z,53781.41
2022-10-07T22:51:27.962Z,53729.72
2022-10-07T22:54:07.156Z,53753.59
2022-10-07T22:56:36.181Z,53787.38
2022-10-07T22:59:04.514Z,53761.53
2022-10-07T23:01:33.021Z,53779.44
2022-10-07T23:04:03.264Z,53751.59
2022-10-07T23:06:33.571Z,53791.34
2022-10-07T23:09:04.803Z,53801.31
2022-10-07T23:11:33.708Z,53759.56
2022-10-07T23:14:02.173Z,53795.34
2022-10-07T23:16:32.458Z,53759.56
2022-10-07T23:19:01.255Z,53777.44
2022-10-07T23:21:33.841Z,53789.38
2022-10-07T23:24:07.753Z,53789.38
2022-10-07T23:26:37.540Z,53779.44
2022-10-07T23:29:07.710Z,53765.50
2022-10-07T23:31:36.284Z,53809.25
2022-10-07T23:34:05.284Z,53777.44
2022-10-07T23:36:34.946Z,53805.28
2022-10-07T23:39:05.616Z,53783.41
2022-10-07T23:41:34.567Z,53791.34
2022-10-07T23:44:04.301Z,53785.41
2022-10-07T23:46:35.708Z,53735.69
2022-10-07T23:49:04.850Z,53751.59
2022-10-07T23:51:34.299Z,53759.56
2022-10-07T23:54:05.179Z,53777.44
2022-10-07T23:56:34.023Z,53785.41
2022-10-07T23:59:03.060Z,53775.47
